Time;durP1;ratioP1;P1;durP2;ratioP2;P2;SDS_P1;SDS_P2;PMS_P1;PMS_P2;Temp;Humidity;BMP_temperature;BMP_pressure;BME280_temperature;BME280_humidity;BME280_pressure;Samples;Min_cycle;Max_cycle;Signal;HPM_P1;HPM_P2
2022/01/02 00:02:04;;;;;;;27.35;20.70;;;;;;;15.28;48.42;94052.56;4928632;28;20257;-82
2022/01/02 00:04:30;;;;;;;28.98;22.25;;;;;;;15.27;48.05;94051.06;4933217;28;20039;-82
2022/01/02 00:06:55;;;;;;;24.60;19.95;;;;;;;15.23;48.38;94028.72;4932983;28;20036;-83
2022/01/02 00:09:31;;;;;;;28.60;21.67;;;;;;;15.28;48.13;94032.75;4932086;28;20036;-84
2022/01/02 00:12:05;;;;;;;25.42;19.58;;;;;;;15.22;48.32;94029.94;4949030;28;20040;-83
2022/01/02 00:14:33;;;;;;;26.83;20.63;;;;;;;15.27;48.39;94025.78;4932793;29;20533;-83
2022/01/02 00:16:58;;;;;;;25.90;20.50;;;;;;;15.25;48.62;94026.28;4933151;28;20097;-83
2022/01/02 00:19:29;;;;;;;26.77;20.23;;;;;;;15.26;48.19;94025.03;4948677;28;20043;-82
2022/01/02 00:22:02;;;;;;;26.98;20.33;;;;;;;15.27;48.16;94020.34;4922218;29;20090;-84
2022/01/02 00:24:28;;;;;;;28.27;19.63;;;;;;;15.22;48.30;94021.75;4936684;28;20039;-82
2022/01/02 00:26:55;;;;;;;23.05;19.38;;;;;;;15.28;48.27;94019.13;4936555;28;20042;-83
2022/01/02 00:29:20;;;;;;;25.25;19.20;;;;;;;15.25;48.22;94020.81;4935799;28;20040;-82
2022/01/02 00:31:46;;;;;;;26.75;21.38;;;;;;;15.26;48.36;94014.16;4952096;28;20035;-84
2022/01/02 00:34:11;;;;;;;26.75;20.02;;;;;;;15.27;48.14;94009.44;4935255;28;20036;-83
2022/01/02 00:36:37;;;;;;;28.45;19.92;;;;;;;15.23;48.22;94012.38;4952337;28;20040;-84
2022/01/02 00:39:03;;;;;;;29.17;21.05;;;;;;;15.26;47.94;94014.16;4935958;28;20044;-82
2022/01/02 00:41:39;;;;;;;26.15;20.65;;;;;;;15.26;48.10;94005.22;4952075;28;20035;-84
2022/01/02 00:44:18;;;;;;;27.50;20.40;;;;;;;15.27;48.13;94006.72;4951314;28;20031;-84
2022/01/02 00:46:57;;;;;;;23.70;19.08;;;;;;;15.26;47.99;94002.50;4952143;28;20035;-83
2022/01/02 00:49:24;;;;;;;21.42;16.75;;;;;;;15.24;48.27;94007.69;4935811;28;20035;-84
2022/01/02 00:51:55;;;;;;;27.27;19.83;;;;;;;15.23;48.22;93987.84;4935877;28;20039;-84
2022/01/02 00:54:23;;;;;;;25.55;20.50;;;;;;;15.28;48.12;93991.88;4951202;28;20043;-83
2022/01/02 00:56:50;;;;;;;23.27;18.90;;;;;;;15.21;48.38;94005.91;4936070;28;20055;-83
2022/01/02 00:59:27;;;;;;;24.30;18.05;;;;;;;15.23;47.95;94001.47;4917557;28;20066;-83
2022/01/02 01:01:58;;;;;;;23.52;19.42;;;;;;;15.26;48.08;93992.34;4930554;29;20043;-84
2022/01/02 01:04:25;;;;;;;23.90;19.55;;;;;;;15.25;48.20;94001.00;4935547;28;20058;-82
2022/01/02 01:06:50;;;;;;;27.25;19.65;;;;;;;15.26;47.59;93997.81;4935387;28;20035;-83
2022/01/02 01:09:16;;;;;;;25.05;19.83;;;;;;;15.24;48.09;94004.94;4918882;28;20050;-83
2022/01/02 01:11:41;;;;;;;26.48;19.65;;;;;;;15.27;48.10;93999.31;4951513;28;20501;-84
2022/01/02 01:14:06;;;;;;;26.13;19.90;;;;;;;15.24;48.35;93994.06;4919346;28;20040;-83
2022/01/02 01:16:32;;;;;;;26.15;20.58;;;;;;;15.28;48.28;93997.34;4952674;28;20090;-83
2022/01/02 01:19:02;;;;;;;27.33;18.92;;;;;;;15.25;48.28;93993.59;4935280;28;20031;-83
2022/01/02 01:21:28;;;;;;;24.90;19.23;;;;;;;15.24;48.25;93991.34;4950870;28;20039;-84
2022/01/02 01:23:54;;;;;;;22.83;18.55;;;;;;;15.21;47.90;93989.56;4935604;28;20155;-83
2022/01/02 01:26:19;;;;;;;22.35;19.23;;;;;;;15.19;48.19;93992.00;4950686;28;20349;-83
2022/01/02 01:28:45;;;;;;;23.48;18.10;;;;;;;15.22;48.30;93994.53;4935429;28;20039;-84
2022/01/02 01:31:10;;;;;;;24.02;18.63;;;;;;;15.18;48.11;93987.78;4934430;28;20048;-83
2022/01/02 01:33:35;;;;;;;22.88;18.58;;;;;;;15.21;47.99;93978.66;4935189;28;20494;-83
2022/01/02 01:36:01;;;;;;;25.55;20.38;;;;;;;15.21;48.17;93970.50;4934359;28;20032;-83
2022/01/02 01:38:26;;;;;;;25.80;19.33;;;;;;;15.19;48.08;93964.78;4934305;28;20052;-83
2022/01/02 01:41:04;;;;;;;26.98;20.17;;;;;;;15.21;48.20;93963.06;4931803;28;20399;-83
2022/01/02 01:43:53;;;;;;;24.50;19.45;;;;;;;15.25;48.25;93962.88;4931948;28;20384;-83
2022/01/02 01:46:17;;;;;;;21.02;16.50;;;;;;;15.22;47.96;93966.53;4918909;28;20042;-83
2022/01/02 01:48:51;;;;;;;23.88;18.25;;;;;;;15.23;48.04;93963.34;4934834;28;20039;-82
2022/01/02 01:51:17;;;;;;;26.38;19.33;;;;;;;15.26;47.96;93956.94;4934176;28;20035;-83
2022/01/02 01:53:42;;;;;;;25.65;18.92;;;;;;;15.22;47.35;93961.09;4950520;28;20039;-83
2022/01/02 01:56:08;;;;;;;22.73;19.20;;;;;;;15.25;47.97;93955.44;4949855;28;20673;-83
2022/01/02 01:58:33;;;;;;;21.92;16.85;;;;;;;15.22;47.88;93950.22;4934287;28;20090;-84
2022/01/02 02:00:59;;;;;;;21.35;16.88;;;;;;;15.20;48.00;93947.97;4940849;28;20047;-83
2022/01/02 02:03:24;;;;;;;22.58;17.98;;;;;;;15.24;48.01;93942.31;4917778;28;20438;-83
2022/01/02 02:05:49;;;;;;;21.10;18.10;;;;;;;15.21;47.91;93940.53;4934440;28;20051;-83
2022/01/02 02:08:15;;;;;;;21.90;16.92;;;;;;;15.21;47.91;93941.28;4932615;28;20086;-84
2022/01/02 02:10:45;;;;;;;23.73;19.70;;;;;;;15.24;47.94;93934.88;4948797;28;20043;-84
2022/01/02 02:13:11;;;;;;;20.02;16.83;;;;;;;15.20;47.95;93934.34;4948926;28;20051;-83
2022/01/02 02:15:36;;;;;;;22.88;17.45;;;;;;;15.23;47.89;93936.13;4949165;28;20570;-83
2022/01/02 02:18:02;;;;;;;25.23;17.98;;;;;;;15.24;47.86;93932.16;4949225;28;20043;-83
2022/01/02 02:20:32;;;;;;;24.33;18.65;;;;;;;15.23;47.76;93936.13;4949687;28;20047;-82
2022/01/02 02:22:58;;;;;;;21.45;16.17;;;;;;;15.19;47.85;93940.25;4934243;29;20494;-82
2022/01/02 02:25:26;;;;;;;22.42;17.90;;;;;;;15.16;48.20;93928.34;4951421;28;20089;-83
2022/01/02 02:27:53;;;;;;;22.77;17.27;;;;;;;15.22;47.90;93923.72;4918672;29;20043;-83
2022/01/02 02:30:19;;;;;;;20.83;16.65;;;;;;;15.22;47.97;93923.72;4950620;28;20043;-83
2022/01/02 02:32:44;;;;;;;23.20;18.00;;;;;;;15.23;47.80;93908.13;4933446;28;20110;-83
2022/01/02 02:35:09;;;;;;;22.05;16.85;;;;;;;15.13;47.96;93918.44;4949183;28;20054;-83
2022/01/02 02:37:42;;;;;;;22.10;17.88;;;;;;;15.22;47.83;93914.81;4949793;28;20086;-83
2022/01/02 02:40:08;;;;;;;24.27;17.42;;;;;;;15.21;47.90;93914.06;4943935;28;20498;-83
2022/01/02 02:42:45;;;;;;;23.58;18.85;;;;;;;15.20;47.77;93911.81;4949239;28;20331;-83
2022/01/02 02:50:47;;;;;;;22.67;17.48;;;;;;;15.19;47.74;93904.84;4949803;28;20405;-83
2022/01/02 02:53:15;;;;;;;21.23;17.25;;;;;;;15.19;47.79;93908.34;4917634;28;20506;-83
2022/01/02 02:55:45;;;;;;;19.13;15.35;;;;;;;15.16;47.75;93900.38;4918147;29;20043;-83
2022/01/02 02:58:38;;;;;;;23.35;17.90;;;;;;;15.20;47.96;93892.75;4948869;28;20050;-83
2022/01/02 03:00:56;;;;;;;23.83;18.00;;;;;;;15.22;47.79;93884.84;4925250;29;20039;-83
2022/01/02 03:03:21;;;;;;;20.67;17.02;;;;;;;15.22;47.85;93885.59;4933483;28;21671;-83
2022/01/02 03:05:47;;;;;;;18.60;15.77;;;;;;;15.24;47.68;93874.97;4934350;29;20039;-83
2022/01/02 03:08:12;;;;;;;20.58;16.05;;;;;;;15.24;47.82;93882.41;4933050;28;20043;-83
2022/01/02 03:10:38;;;;;;;22.08;17.08;;;;;;;15.18;47.78;93876.13;4933502;28;20049;-84
2022/01/02 03:13:03;;;;;;;21.23;16.75;;;;;;;15.17;47.66;93877.34;4932882;28;20450;-82
2022/01/02 03:15:29;;;;;;;20.38;17.40;;;;;;;15.19;47.42;93872.94;4949711;28;20042;-83
2022/01/02 03:17:55;;;;;;;21.45;15.98;;;;;;;15.20;47.83;93858.09;4949318;28;20063;-83
2022/01/02 03:20:20;;;;;;;23.77;16.77;;;;;;;15.20;47.79;93849.91;4948741;28;20410;-83
2022/01/02 03:22:45;;;;;;;23.08;18.50;;;;;;;15.23;47.61;93857.13;4933687;28;20078;-82
2022/01/02 03:25:14;;;;;;;18.73;16.55;;;;;;;15.21;47.79;93851.41;4917244;28;20382;-83
2022/01/02 03:27:42;;;;;;;23.55;17.75;;;;;;;15.21;47.88;93856.13;4949527;28;20036;-82
2022/01/02 03:30:08;;;;;;;20.30;16.30;;;;;;;15.24;47.79;93847.00;4932351;28;20032;-83
2022/01/02 03:32:34;;;;;;;23.42;17.50;;;;;;;15.23;47.97;93837.31;4949098;28;20039;-82
2022/01/02 03:34:59;;;;;;;19.40;16.88;;;;;;;15.22;47.79;93841.28;4933388;28;20047;-82
2022/01/02 03:37:28;;;;;;;20.92;17.48;;;;;;;15.20;47.44;93839.03;4948631;28;20048;-83
2022/01/02 03:39:54;;;;;;;20.48;16.15;;;;;;;15.17;47.68;93834.53;4949611;28;20035;-84
2022/01/02 03:42:19;;;;;;;24.30;17.38;;;;;;;15.21;48.12;93826.91;4932981;28;20066;-83
2022/01/02 03:44:45;;;;;;;20.63;13.75;;;;;;;15.13;47.97;93830.53;4917504;29;20451;-83
2022/01/02 03:47:10;;;;;;;21.25;16.80;;;;;;;15.14;47.75;93834.75;4948395;28;20036;-83
2022/01/02 03:49:36;;;;;;;21.38;16.52;;;;;;;15.19;47.69;93826.63;4949079;28;20039;-83
2022/01/02 03:52:01;;;;;;;21.42;17.40;;;;;;;15.17;47.81;93828.34;4949357;28;20086;-83
2022/01/02 03:54:26;;;;;;;20.77;16.73;;;;;;;15.16;47.62;93824.88;4949090;28;20043;-83
2022/01/02 03:56:53;;;;;;;22.83;17.40;;;;;;;15.20;47.70;93819.22;4936620;28;20412;-83
2022/01/02 03:59:19;;;;;;;20.33;15.88;;;;;;;15.22;47.57;93814.03;4934144;28;20047;-83
2022/01/02 04:01:44;;;;;;;23.17;16.95;;;;;;;15.16;47.83;93811.25;4913550;29;20387;-83
2022/01/02 04:04:09;;;;;;;21.35;16.70;;;;;;;15.18;47.67;93803.34;4951662;28;20265;-84
2022/01/02 04:06:35;;;;;;;20.85;16.23;;;;;;;15.15;47.87;93800.88;4921212;29;20457;-84
2022/01/02 04:09:00;;;;;;;19.60;15.50;;;;;;;15.17;47.53;93801.84;4952414;28;20047;-84
2022/01/02 04:11:26;;;;;;;22.25;17.50;;;;;;;15.19;47.83;93812.28;4951695;28;20043;-83
2022/01/02 04:13:51;;;;;;;19.95;15.93;;;;;;;15.23;47.73;93807.38;4952205;28;20047;-83
2022/01/02 04:16:16;;;;;;;19.48;15.90;;;;;;;15.19;47.60;93812.28;4952188;28;20494;-84
2022/01/02 04:18:42;;;;;;;19.33;15.38;;;;;;;15.21;47.54;93799.66;4936545;28;20054;-83
2022/01/02 04:21:07;;;;;;;21.33;16.65;;;;;;;15.17;47.70;93820.91;4935849;28;20040;-83
2022/01/02 04:23:33;;;;;;;18.35;16.13;;;;;;;15.21;47.55;93816.00;4952192;28;20623;-84
2022/01/02 04:25:58;;;;;;;18.95;16.27;;;;;;;15.21;47.47;93802.41;4953541;28;20043;-84
2022/01/02 04:28:23;;;;;;;19.23;16.02;;;;;;;15.20;47.75;93797.44;4951907;28;20039;-83
2022/01/02 04:30:49;;;;;;;18.02;14.68;;;;;;;15.19;47.70;93798.66;4922571;28;20078;-83
2022/01/02 04:33:14;;;;;;;20.50;16.90;;;;;;;15.19;47.52;93788.50;4955009;28;20034;-84
2022/01/02 04:35:40;;;;;;;20.15;16.20;;;;;;;15.21;47.39;93798.91;4955099;28;20039;-83
2022/01/02 04:38:05;;;;;;;16.92;14.40;;;;;;;15.19;47.59;93793.22;4954200;28;20086;-83
2022/01/02 04:40:30;;;;;;;16.48;14.10;;;;;;;15.18;47.64;93780.81;4936190;29;20039;-84
2022/01/02 04:42:56;;;;;;;18.83;15.48;;;;;;;15.17;47.66;93782.03;4935933;28;20058;-83
2022/01/02 04:45:21;;;;;;;16.52;14.07;;;;;;;15.15;47.60;93782.56;4919737;28;20047;-83
2022/01/02 04:47:46;;;;;;;19.90;16.30;;;;;;;15.15;47.76;93776.34;4916646;28;20035;-83
2022/01/02 04:50:12;;;;;;;19.63;15.57;;;;;;;15.14;47.50;93788.47;4922550;28;20121;-83
2022/01/02 04:52:37;;;;;;;19.50;15.45;;;;;;;15.17;47.64;93780.06;4939629;28;20035;-84
2022/01/02 04:55:03;;;;;;;19.88;15.45;;;;;;;15.23;47.51;93796.47;4938338;28;20046;-83
2022/01/02 04:57:29;;;;;;;18.08;14.98;;;;;;;15.24;47.52;93790.53;4938852;28;20031;-83
2022/01/02 04:59:54;;;;;;;18.98;15.32;;;;;;;15.22;47.36;93790.28;4951070;28;20491;-85
2022/01/02 05:02:19;;;;;;;19.15;15.20;;;;;;;15.20;47.48;93797.44;4954213;28;20039;-84
2022/01/02 05:04:45;;;;;;;19.23;16.00;;;;;;;15.18;47.58;93789.72;4955240;28;20043;-82
2022/01/02 05:07:13;;;;;;;19.02;15.18;;;;;;;15.19;47.83;93793.22;4970743;28;20035;-83
2022/01/02 05:09:38;;;;;;;19.88;14.93;;;;;;;15.21;47.24;93783.34;4939494;28;20043;-83
2022/01/02 05:12:04;;;;;;;19.30;14.25;;;;;;;15.20;47.48;93784.56;4970991;28;20493;-82
2022/01/02 05:14:29;;;;;;;19.73;16.25;;;;;;;15.22;47.61;93786.81;4954873;28;20409;-83
2022/01/02 05:16:55;;;;;;;19.10;15.35;;;;;;;15.23;47.25;93769.97;4938520;28;20049;-84
2022/01/02 05:19:20;;;;;;;17.42;13.95;;;;;;;15.18;47.68;93772.66;4938142;28;20039;-83
2022/01/02 05:21:46;;;;;;;19.30;15.02;;;;;;;15.22;47.59;93773.19;4938476;28;20105;-83
2022/01/02 05:24:11;;;;;;;20.33;15.60;;;;;;;15.19;47.67;93766.72;4937789;28;20450;-83
2022/01/02 05:26:36;;;;;;;19.13;15.93;;;;;;;15.19;47.67;93774.91;4938662;28;20038;-83
2022/01/02 05:29:02;;;;;;;18.42;15.55;;;;;;;15.17;47.54;93771.91;4937578;28;20066;-82
2022/01/02 05:31:27;;;;;;;15.68;12.75;;;;;;;15.14;47.43;93758.53;4934699;28;20046;-83
2022/01/02 05:33:53;;;;;;;19.65;15.73;;;;;;;15.21;47.35;93768.97;4950970;28;20467;-82
2022/01/02 05:36:18;;;;;;;17.15;14.43;;;;;;;15.17;47.46;93763.72;4950025;28;20027;-82
2022/01/02 05:38:43;;;;;;;18.38;15.07;;;;;;;15.18;47.36;93754.34;4950769;28;20035;-84
2022/01/02 05:41:09;;;;;;;17.60;14.50;;;;;;;15.18;47.57;93746.16;4951854;28;20050;-83
2022/01/02 05:43:34;;;;;;;19.00;15.15;;;;;;;15.22;47.30;93757.59;4950905;29;20035;-83
2022/01/02 05:46:05;;;;;;;19.20;15.40;;;;;;;15.20;47.29;93762.03;4950682;28;20486;-83
2022/01/02 05:48:31;;;;;;;17.85;15.13;;;;;;;15.19;47.56;93765.97;4950071;28;20035;-84
2022/01/02 05:50:58;;;;;;;16.27;12.98;;;;;;;15.16;47.47;93764.22;4934370;28;20040;-82
2022/01/02 05:53:24;;;;;;;19.00;14.55;;;;;;;15.15;47.49;93762.75;4919237;28;20035;-82
2022/01/02 05:55:49;;;;;;;17.85;14.40;;;;;;;15.19;47.77;93760.53;4934871;28;20042;-84
2022/01/02 05:58:15;;;;;;;17.58;13.93;;;;;;;15.16;47.40;93753.31;4933760;28;20039;-83
2022/01/02 06:00:40;;;;;;;17.83;14.38;;;;;;;15.19;47.45;93744.94;4940872;28;20102;-82
2022/01/02 06:03:05;;;;;;;20.42;14.05;;;;;;;15.16;47.32;93739.69;4934113;28;20050;-85
2022/01/02 06:05:32;;;;;;;21.35;15.02;;;;;;;15.20;47.59;93738.25;4933848;29;20514;-84
2022/01/02 06:07:57;;;;;;;17.23;14.40;;;;;;;15.19;47.14;93738.75;4933180;29;20043;-83
2022/01/02 06:10:23;;;;;;;17.85;13.55;;;;;;;15.18;47.29;93735.28;4932170;28;20054;-82
2022/01/02 06:12:48;;;;;;;19.67;15.63;;;;;;;15.22;47.31;93735.06;4917148;29;20485;-83
2022/01/02 06:15:13;;;;;;;16.27;13.07;;;;;;;15.12;47.63;93739.94;4949960;28;20067;-82
2022/01/02 06:17:39;;;;;;;18.90;15.25;;;;;;;15.15;47.63;93730.81;4949477;28;20031;-84
2022/01/02 06:20:05;;;;;;;17.55;14.80;;;;;;;15.18;47.16;93735.28;4950080;28;20086;-82
2022/01/02 06:22:30;;;;;;;17.55;14.10;;;;;;;15.16;47.26;93743.16;4932948;28;20027;-84
2022/01/02 06:24:55;;;;;;;17.45;13.40;;;;;;;15.19;47.37;93733.28;4934074;28;20596;-83
2022/01/02 06:27:21;;;;;;;16.10;13.88;;;;;;;15.15;47.44;93730.81;4949434;28;20078;-84
2022/01/02 06:29:49;;;;;;;17.10;14.75;;;;;;;15.18;47.39;93734.53;4950300;28;20047;-83
2022/01/02 06:32:14;;;;;;;18.05;14.18;;;;;;;15.14;47.31;93739.47;4930756;28;20050;-83
2022/01/02 06:34:39;;;;;;;16.35;14.02;;;;;;;15.14;47.43;93734.00;4933643;28;20078;-83
2022/01/02 06:37:05;;;;;;;19.10;14.63;;;;;;;15.14;47.44;93726.59;4949539;28;20458;-82
2022/01/02 06:39:30;;;;;;;17.42;13.00;;;;;;;15.15;47.41;93730.06;4933833;28;20043;-84
2022/01/02 06:41:56;;;;;;;14.73;12.13;;;;;;;15.13;47.42;93735.25;4951320;28;20071;-83
2022/01/02 06:44:21;;;;;;;16.80;12.75;;;;;;;15.13;47.42;93727.81;4949537;28;20562;-83
2022/01/02 06:46:46;;;;;;;16.30;14.50;;;;;;;15.16;47.21;93726.09;4934125;28;20047;-83
2022/01/02 06:49:12;;;;;;;22.00;15.43;;;;;;;15.17;47.20;93714.72;4950914;28;20047;-83
2022/01/02 06:51:37;;;;;;;17.08;14.70;;;;;;;15.16;47.30;93718.66;4951319;28;20043;-83
2022/01/02 06:54:03;;;;;;;19.00;15.52;;;;;;;15.19;47.17;93719.69;4949106;28;20051;-82
2022/01/02 06:56:28;;;;;;;15.27;13.27;;;;;;;15.13;47.22;93725.09;4949184;28;20055;-82
2022/01/02 06:58:53;;;;;;;18.67;14.32;;;;;;;15.11;47.47;93724.84;4933636;28;20086;-82
2022/01/02 07:01:19;;;;;;;17.48;14.65;;;;;;;15.15;47.33;93725.38;4921224;28;20040;-83
2022/01/02 07:03:44;;;;;;;16.88;13.65;;;;;;;15.18;47.22;93718.94;4949801;28;20043;-82
2022/01/02 07:06:09;;;;;;;17.17;13.68;;;;;;;15.18;47.29;93718.19;4932852;28;20289;-82
2022/01/02 07:08:35;;;;;;;15.63;13.38;;;;;;;15.23;47.17;93717.50;4917926;29;20121;-82
2022/01/02 07:11:00;;;;;;;15.80;13.40;;;;;;;15.16;47.38;93713.22;4932694;29;20047;-83
2022/01/02 07:13:26;;;;;;;16.60;13.50;;;;;;;15.20;47.41;93711.03;4949299;28;20039;-83
2022/01/02 07:15:51;;;;;;;16.17;13.20;;;;;;;15.17;47.23;93706.53;4917414;29;20051;-83
2022/01/02 07:18:17;;;;;;;16.20;13.75;;;;;;;15.20;47.12;93710.28;4948860;28;20039;-83
2022/01/02 07:20:42;;;;;;;15.70;13.60;;;;;;;15.22;47.17;93703.13;4917620;29;20414;-82
2022/01/02 07:23:07;;;;;;;17.52;13.13;;;;;;;15.18;47.29;93701.84;4932419;28;20041;-82
2022/01/02 07:25:33;;;;;;;15.82;13.32;;;;;;;15.18;47.32;93702.59;4949599;28;20043;-82
2022/01/02 07:27:58;;;;;;;15.40;13.18;;;;;;;15.12;47.15;93698.34;4950622;28;20363;-82
2022/01/02 07:30:24;;;;;;;14.65;12.55;;;;;;;15.16;47.25;93691.44;4951768;28;20047;-82
2022/01/02 07:32:49;;;;;;;16.35;13.35;;;;;;;15.19;47.02;93697.91;4952950;28;20403;-83
2022/01/02 07:35:15;;;;;;;19.77;14.68;;;;;;;15.09;47.27;93691.88;4952044;28;20046;-83
2022/01/02 07:37:40;;;;;;;19.58;14.35;;;;;;;15.17;47.21;93687.47;4952798;28;20036;-83
2022/01/02 07:40:06;;;;;;;22.45;16.33;;;;;;;15.24;47.00;93684.34;4952897;28;20043;-83
2022/01/02 07:42:32;;;;;;;22.05;16.98;;;;;;;15.20;47.31;93678.34;4920859;29;20067;-84
2022/01/02 07:44:58;;;;;;;17.42;13.57;;;;;;;15.15;46.86;93672.88;4952833;29;20469;-82
2022/01/02 07:47:23;;;;;;;16.90;13.57;;;;;;;15.25;46.94;93672.22;4953995;28;20248;-82
2022/01/02 07:49:49;;;;;;;17.27;13.63;;;;;;;15.16;47.35;93674.34;4952579;28;20410;-84
2022/01/02 07:52:14;;;;;;;17.55;14.00;;;;;;;15.21;47.17;93668.97;4935990;28;20039;-82
2022/01/02 07:54:40;;;;;;;17.48;14.20;;;;;;;15.22;47.15;93665.00;4952853;28;20525;-82
2022/01/02 07:57:05;;;;;;;15.88;13.65;;;;;;;15.23;46.83;93668.47;4951986;28;20070;-83
2022/01/02 07:59:31;;;;;;;17.52;14.68;;;;;;;15.24;46.91;93659.81;4949206;28;20051;-82
2022/01/02 08:01:57;;;;;;;19.70;15.35;;;;;;;15.27;47.16;93663.56;4946921;28;20553;-82
2022/01/02 08:04:22;;;;;;;18.13;14.32;;;;;;;15.22;46.83;93662.28;4936330;28;20047;-83
2022/01/02 08:06:47;;;;;;;19.13;14.15;;;;;;;15.17;46.99;93657.53;4952322;28;20039;-82
2022/01/02 08:09:13;;;;;;;17.02;13.35;;;;;;;15.26;46.93;93653.91;4935910;28;20035;-83
2022/01/02 08:11:38;;;;;;;19.88;14.55;;;;;;;15.27;46.87;93661.59;4952109;28;20417;-84
2022/01/02 08:14:04;;;;;;;16.27;13.63;;;;;;;15.34;46.88;93650.25;4951909;28;20529;-82
2022/01/02 08:16:29;;;;;;;16.95;13.68;;;;;;;15.33;46.89;93658.91;4936432;28;20043;-84
2022/01/02 08:18:54;;;;;;;15.32;12.05;;;;;;;15.41;46.79;93649.03;4936420;29;20048;-84
2022/01/02 08:21:20;;;;;;;18.60;14.20;;;;;;;15.37;46.86;93641.09;4919761;28;20098;-83
2022/01/02 08:23:45;;;;;;;14.95;12.45;;;;;;;15.40;46.62;93650.28;4936367;28;20070;-83
2022/01/02 08:26:11;;;;;;;18.05;14.20;;;;;;;15.30;46.77;93655.16;4935766;28;20032;-84
2022/01/02 08:28:36;;;;;;;17.73;13.82;;;;;;;15.30;46.85;93649.72;4952593;28;20553;-82
2022/01/02 08:31:01;;;;;;;14.32;11.48;;;;;;;15.38;46.66;93655.44;4935422;28;20048;-84
2022/01/02 08:33:27;;;;;;;17.77;14.10;;;;;;;15.35;46.71;93657.19;4936013;28;20055;-83
2022/01/02 08:35:52;;;;;;;18.95;13.65;;;;;;;15.32;46.82;93649.25;4935614;28;20098;-83
2022/01/02 08:38:18;;;;;;;20.05;14.02;;;;;;;15.34;46.81;93652.97;4951595;28;20043;-84
2022/01/02 08:40:43;;;;;;;15.93;12.73;;;;;;;15.41;46.63;93649.78;4952836;28;20043;-83
2022/01/02 08:43:09;;;;;;;17.33;12.98;;;;;;;15.42;46.71;93650.53;4935524;28;20035;-82
2022/01/02 08:45:35;;;;;;;15.88;12.90;;;;;;;15.40;46.47;93644.81;4936305;29;20352;-84
2022/01/02 08:48:00;;;;;;;15.73;12.60;;;;;;;15.42;46.80;93655.97;4935803;28;20035;-83
2022/01/02 08:50:26;;;;;;;16.08;13.75;;;;;;;15.44;46.39;93648.06;4952453;28;20039;-83
2022/01/02 08:52:51;;;;;;;15.18;13.00;;;;;;;15.49;46.50;93646.63;4936046;28;20075;-82
2022/01/02 08:55:16;;;;;;;14.88;12.63;;;;;;;15.51;46.48;93653.09;4935093;28;20043;-83
2022/01/02 08:57:42;;;;;;;14.93;11.77;;;;;;;15.56;46.50;93657.84;4951322;28;20490;-82
2022/01/02 09:00:08;;;;;;;14.98;12.93;;;;;;;15.55;46.34;93645.44;4942565;28;20032;-83
2022/01/02 09:02:33;;;;;;;14.43;11.80;;;;;;;15.57;46.16;93653.91;4950842;28;20031;-84
2022/01/02 09:04:59;;;;;;;19.50;13.60;;;;;;;15.49;46.53;93641.16;4935523;29;20122;-83
2022/01/02 09:07:24;;;;;;;16.88;13.90;;;;;;;15.48;46.54;93650.56;4952821;28;20518;-82
2022/01/02 09:09:49;;;;;;;16.70;13.25;;;;;;;15.52;46.54;93651.09;4935636;28;20046;-84
2022/01/02 09:12:15;;;;;;;16.08;12.70;;;;;;;15.49;46.45;93649.34;4951090;28;20133;-83
2022/01/02 09:14:41;;;;;;;17.15;13.02;;;;;;;15.48;46.53;93651.31;4935666;28;20410;-83
2022/01/02 09:17:06;;;;;;;16.85;13.80;;;;;;;15.53;46.58;93638.97;4934869;28;20106;-83
2022/01/02 09:19:32;;;;;;;14.63;12.43;;;;;;;15.50;46.49;93640.69;4919873;29;20490;-83
2022/01/02 09:21:57;;;;;;;16.05;13.27;;;;;;;15.47;46.65;93641.66;4951170;28;20043;-82
2022/01/02 09:24:23;;;;;;;15.90;14.20;;;;;;;15.51;46.43;93634.00;4935039;28;20039;-83
2022/01/02 09:26:48;;;;;;;18.02;13.68;;;;;;;15.51;46.67;93636.72;4951433;28;20062;-84
2022/01/02 09:29:13;;;;;;;16.40;12.48;;;;;;;15.46;46.66;93642.88;4934752;28;20358;-83
2022/01/02 09:31:40;;;;;;;15.40;12.48;;;;;;;15.44;46.34;93639.91;4950752;28;20032;-83
2022/01/02 09:34:05;;;;;;;16.05;12.05;;;;;;;15.48;46.66;93628.78;4950385;28;20038;-82
2022/01/02 09:36:31;;;;;;;14.77;11.88;;;;;;;15.52;46.70;93626.59;4934928;28;20039;-83
2022/01/02 09:38:57;;;;;;;16.60;13.25;;;;;;;15.49;46.43;93617.41;4935200;28;20043;-83
2022/01/02 09:41:22;;;;;;;16.33;13.30;;;;;;;15.50;46.33;93613.44;4950423;28;20176;-83
2022/01/02 09:43:48;;;;;;;17.67;13.65;;;;;;;15.54;46.40;93629.56;4951123;28;20035;-82
2022/01/02 09:46:21;;;;;;;16.60;13.75;;;;;;;15.53;46.39;93633.53;4951384;28;20043;-84
2022/01/02 09:48:47;;;;;;;14.80;12.32;;;;;;;15.46;46.46;93625.78;4932175;28;20039;-82
2022/01/02 09:51:13;;;;;;;14.48;11.93;;;;;;;15.47;46.46;93628.03;4915117;28;20513;-85
2022/01/02 09:53:38;;;;;;;18.33;12.68;;;;;;;15.52;46.41;93634.75;4915680;29;20047;-83
2022/01/02 09:56:05;;;;;;;15.15;12.35;;;;;;;15.59;46.30;93632.34;4914782;29;20044;-82
2022/01/02 09:58:33;;;;;;;15.98;12.75;;;;;;;15.51;46.47;93631.28;4935233;28;20036;-83
2022/01/02 10:00:58;;;;;;;14.45;12.75;;;;;;;15.51;46.72;93631.28;4941339;28;20046;-82
2022/01/02 10:03:24;;;;;;;15.77;12.82;;;;;;;15.44;46.92;93615.38;4930794;28;20040;-84
2022/01/02 10:05:51;;;;;;;12.98;11.07;;;;;;;15.43;46.75;93611.91;4937278;29;20046;-83
2022/01/02 10:08:23;;;;;;;16.60;12.70;;;;;;;15.44;46.81;93618.84;4932772;28;20479;-82
2022/01/02 10:10:56;;;;;;;16.73;12.40;;;;;;;15.45;46.79;93608.69;4945697;28;20039;-82
2022/01/02 10:13:41;;;;;;;14.98;11.88;;;;;;;15.40;46.64;93604.72;4933993;28;20051;-83
2022/01/02 10:16:34;;;;;;;14.45;11.02;;;;;;;15.38;46.82;93607.16;4929667;28;20039;-83
2022/01/02 10:19:01;;;;;;;15.52;12.77;;;;;;;15.38;46.92;93601.72;4932364;28;20047;-83
2022/01/02 10:21:38;;;;;;;16.10;12.65;;;;;;;15.42;46.92;93596.06;4914883;29;20558;-83
2022/01/02 10:24:12;;;;;;;14.90;11.73;;;;;;;15.42;46.92;93593.31;4945053;28;20157;-82
2022/01/02 10:26:38;;;;;;;15.18;12.93;;;;;;;15.36;47.20;93578.94;4934420;28;20431;-83
2022/01/02 10:29:11;;;;;;;15.38;12.00;;;;;;;15.39;46.84;93583.41;4933548;28;20031;-82
2022/01/02 10:31:37;;;;;;;14.48;12.07;;;;;;;15.43;46.80;93581.94;4934092;28;20134;-83
2022/01/02 10:34:02;;;;;;;15.23;12.07;;;;;;;15.38;46.90;93588.09;4949375;28;20599;-82
2022/01/02 10:36:34;;;;;;;14.88;12.45;;;;;;;15.39;46.86;93580.69;4933794;28;20050;-83
2022/01/02 10:39:02;;;;;;;13.93;11.45;;;;;;;15.44;46.69;93578.00;4949559;28;20063;-83
2022/01/02 10:41:33;;;;;;;16.20;13.27;;;;;;;15.40;46.85;93576.72;4931038;28;20047;-82
2022/01/02 10:44:26;;;;;;;14.05;11.65;;;;;;;15.40;46.69;93582.91;4915487;29;20066;-83
2022/01/02 10:47:21;;;;;;;15.60;12.52;;;;;;;15.39;46.92;93575.97;4935177;28;20106;-83
2022/01/02 10:49:49;;;;;;;16.20;12.30;;;;;;;15.38;46.95;93566.31;4951071;28;20047;-83
2022/01/02 10:52:23;;;;;;;15.73;12.70;;;;;;;15.40;46.98;93568.56;4950394;28;20032;-83
2022/01/02 10:54:49;;;;;;;13.05;10.45;;;;;;;15.41;46.94;93561.88;4918893;29;20058;-83
2022/01/02 10:57:14;;;;;;;14.68;11.05;;;;;;;15.43;46.86;93562.88;4917262;28;20487;-84
2022/01/02 10:59:39;;;;;;;12.57;10.63;;;;;;;15.41;46.97;93559.16;4944918;28;20043;-83
2022/01/02 11:02:05;;;;;;;14.05;12.00;;;;;;;15.41;46.97;93568.06;4929228;28;20067;-83
2022/01/02 11:04:32;;;;;;;16.85;12.82;;;;;;;15.41;47.16;93550.97;4933566;28;20167;-83
2022/01/02 11:07:00;;;;;;;14.43;11.65;;;;;;;15.42;46.77;93561.38;4918204;29;20168;-83
2022/01/02 11:09:26;;;;;;;14.75;11.98;;;;;;;15.39;46.94;93562.34;4933065;28;20499;-84
2022/01/02 11:11:51;;;;;;;14.25;10.48;;;;;;;15.36;47.00;93549.75;4933399;29;20049;-83
2022/01/02 11:14:17;;;;;;;14.35;12.48;;;;;;;15.42;46.88;93555.19;4949154;28;20040;-84
2022/01/02 11:16:42;;;;;;;14.68;11.70;;;;;;;15.40;47.19;93554.94;4917878;29;20047;-84
2022/01/02 11:19:11;;;;;;;12.65;11.23;;;;;;;15.41;47.00;93549.00;4949173;28;20046;-82
2022/01/02 11:21:36;;;;;;;14.05;11.27;;;;;;;15.40;47.11;93544.78;4918478;29;20411;-84